sensor_id;sensor_type;location;lat;lon;timestamp;P1;P2;P0
57411;PMS5003;43247;52.828;-8.980;2023-11-19T00:00:32;8;7;
57411;PMS5003;43247;52.828;-8.980;2023-11-19T00:01:33;7;7;
57411;PMS5003;43247;52.828;-8.980;2023-11-19T00:02:34;7;5;
57411;PMS5003;43247;52.828;-8.980;2023-11-19T00:03:34;10;6;
57411;PMS5003;43247;52.828;-8.980;2023-11-19T00:04:36;4;4;
57411;PMS5003;43247;52.828;-8.980;2023-11-19T00:05:35;7;5;
57411;PMS5003;43247;52.828;-8.980;2023-11-19T00:06:35;8;8;
57411;PMS5003;43247;52.828;-8.980;2023-11-19T00:07:35;5;5;
57411;PMS5003;43247;52.828;-8.980;2023-11-19T00:08:36;6;4;
57411;PMS5003;43247;52.828;-8.980;2023-11-19T00:09:37;9;6;
57411;PMS5003;43247;52.828;-8.980;2023-11-19T00:10:37;9;9;
57411;PMS5003;43247;52.828;-8.980;2023-11-19T00:11:37;8;5;
57411;PMS5003;43247;52.828;-8.980;2023-11-19T00:12:38;10;6;
57411;PMS5003;43247;52.828;-8.980;2023-11-19T00:13:38;6;6;
57411;PMS5003;43247;52.828;-8.980;2023-11-19T00:14:38;7;5;
57411;PMS5003;43247;52.828;-8.980;2023-11-19T00:15:38;11;7;
57411;PMS5003;43247;52.828;-8.980;2023-11-19T00:16:39;8;8;
57411;PMS5003;43247;52.828;-8.980;2023-11-19T00:17:39;9;7;
57411;PMS5003;43247;52.828;-8.980;2023-11-19T00:18:39;5;4;
57411;PMS5003;43247;52.828;-8.980;2023-11-19T00:19:40;13;9;
57411;PMS5003;43247;52.828;-8.980;2023-11-19T00:20:40;10;9;
57411;PMS5003;43247;52.828;-8.980;2023-11-19T00:21:41;7;5;
57411;PMS5003;43247;52.828;-8.980;2023-11-19T00:22:41;6;6;
57411;PMS5003;43247;52.828;-8.980;2023-11-19T00:23:41;5;5;
57411;PMS5003;43247;52.828;-8.980;2023-11-19T00:24:41;10;7;
57411;PMS5003;43247;52.828;-8.980;2023-11-19T00:25:41;5;4;
57411;PMS5003;43247;52.828;-8.980;2023-11-19T00:26:41;7;7;
57411;PMS5003;43247;52.828;-8.980;2023-11-19T00:27:41;8;8;
57411;PMS5003;43247;52.828;-8.980;2023-11-19T00:28:41;11;7;
57411;PMS5003;43247;52.828;-8.980;2023-11-19T00:29:42;7;6;
57411;PMS5003;43247;52.828;-8.980;2023-11-19T00:30:43;9;7;
57411;PMS5003;43247;52.828;-8.980;2023-11-19T00:31:43;5;4;
57411;PMS5003;43247;52.828;-8.980;2023-11-19T00:32:43;5;5;
57411;PMS5003;43247;52.828;-8.980;2023-11-19T00:33:43;13;9;
57411;PMS5003;43247;52.828;-8.980;2023-11-19T00:34:44;6;5;
57411;PMS5003;43247;52.828;-8.980;2023-11-19T00:35:44;7;4;
57411;PMS5003;43247;52.828;-8.980;2023-11-19T00:36:44;7;4;
57411;PMS5003;43247;52.828;-8.980;2023-11-19T00:37:44;7;5;
57411;PMS5003;43247;52.828;-8.980;2023-11-19T00:38:45;4;4;
57411;PMS5003;43247;52.828;-8.980;2023-11-19T00:39:45;8;7;
57411;PMS5003;43247;52.828;-8.980;2023-11-19T00:40:45;7;7;
57411;PMS5003;43247;52.828;-8.980;2023-11-19T00:41:46;7;5;
57411;PMS5003;43247;52.828;-8.980;2023-11-19T00:42:46;6;5;
57411;PMS5003;43247;52.828;-8.980;2023-11-19T00:43:46;7;5;
57411;PMS5003;43247;52.828;-8.980;2023-11-19T00:44:46;6;6;
57411;PMS5003;43247;52.828;-8.980;2023-11-19T00:45:47;11;8;
57411;PMS5003;43247;52.828;-8.980;2023-11-19T00:46:47;11;8;
57411;PMS5003;43247;52.828;-8.980;2023-11-19T00:47:47;6;6;
57411;PMS5003;43247;52.828;-8.980;2023-11-19T00:48:47;5;5;
57411;PMS5003;43247;52.828;-8.980;2023-11-19T00:49:48;4;4;
57411;PMS5003;43247;52.828;-8.980;2023-11-19T00:50:48;10;9;
57411;PMS5003;43247;52.828;-8.980;2023-11-19T00:51:49;8;6;
57411;PMS5003;43247;52.828;-8.980;2023-11-19T00:52:50;11;7;
57411;PMS5003;43247;52.828;-8.980;2023-11-19T00:53:51;7;5;
57411;PMS5003;43247;52.828;-8.980;2023-11-19T00:54:51;11;7;
57411;PMS5003;43247;52.828;-8.980;2023-11-19T00:55:51;10;7;
57411;PMS5003;43247;52.828;-8.980;2023-11-19T00:56:52;10;8;
57411;PMS5003;43247;52.828;-8.980;2023-11-19T00:57:52;10;6;
57411;PMS5003;43247;52.828;-8.980;2023-11-19T00:58:53;7;6;
57411;PMS5003;43247;52.828;-8.980;2023-11-19T00:59:53;9;8;
57411;PMS5003;43247;52.828;-8.980;2023-11-19T01:00:53;10;9;
57411;PMS5003;43247;52.828;-8.980;2023-11-19T01:01:53;6;6;
57411;PMS5003;43247;52.828;-8.980;2023-11-19T01:02:53;6;6;
57411;PMS5003;43247;52.828;-8.980;2023-11-19T01:03:53;10;7;
57411;PMS5003;43247;52.828;-8.980;2023-11-19T01:04:54;8;8;
57411;PMS5003;43247;52.828;-8.980;2023-11-19T01:05:54;13;12;
57411;PMS5003;43247;52.828;-8.980;2023-11-19T01:06:54;6;6;
57411;PMS5003;43247;52.828;-8.980;2023-11-19T01:07:55;9;9;
57411;PMS5003;43247;52.828;-8.980;2023-11-19T01:08:55;11;9;
57411;PMS5003;43247;52.828;-8.980;2023-11-19T01:09:56;7;4;
57411;PMS5003;43247;52.828;-8.980;2023-11-19T01:10:56;10;9;
57411;PMS5003;43247;52.828;-8.980;2023-11-19T01:11:56;11;10;
57411;PMS5003;43247;52.828;-8.980;2023-11-19T01:12:56;8;5;
57411;PMS5003;43247;52.828;-8.980;2023-11-19T01:13:56;6;6;
57411;PMS5003;43247;52.828;-8.980;2023-11-19T01:14:57;10;5;
57411;PMS5003;43247;52.828;-8.980;2023-11-19T01:15:57;9;8;
57411;PMS5003;43247;52.828;-8.980;2023-11-19T01:16:57;6;5;
57411;PMS5003;43247;52.828;-8.980;2023-11-19T01:17:57;7;7;
57411;PMS5003;43247;52.828;-8.980;2023-11-19T01:18:57;8;6;
57411;PMS5003;43247;52.828;-8.980;2023-11-19T01:19:58;9;7;
57411;PMS5003;43247;52.828;-8.980;2023-11-19T01:20:58;7;7;
57411;PMS5003;43247;52.828;-8.980;2023-11-19T01:21:58;5;5;
57411;PMS5003;43247;52.828;-8.980;2023-11-19T01:22:58;5;4;
57411;PMS5003;43247;52.828;-8.980;2023-11-19T01:23:58;10;7;
57411;PMS5003;43247;52.828;-8.980;2023-11-19T01:24:59;7;6;
57411;PMS5003;43247;52.828;-8.980;2023-11-19T01:25:59;6;5;
57411;PMS5003;43247;52.828;-8.980;2023-11-19T01:26:59;6;5;
57411;PMS5003;43247;52.828;-8.980;2023-11-19T01:27:59;10;7;
57411;PMS5003;43247;52.828;-8.980;2023-11-19T01:28:59;6;4;
57411;PMS5003;43247;52.828;-8.980;2023-11-19T01:30:00;5;5;
57411;PMS5003;43247;52.828;-8.980;2023-11-19T01:31:00;6;5;
57411;PMS5003;43247;52.828;-8.980;2023-11-19T01:32:00;6;5;
57411;PMS5003;43247;52.828;-8.980;2023-11-19T01:33:00;9;6;
57411;PMS5003;43247;52.828;-8.980;2023-11-19T01:34:01;8;8;
57411;PMS5003;43247;52.828;-8.980;2023-11-19T01:35:02;4;3;
57411;PMS5003;43247;52.828;-8.980;2023-11-19T01:36:02;6;6;
57411;PMS5003;43247;52.828;-8.980;2023-11-19T01:37:02;7;5;
57411;PMS5003;43247;52.828;-8.980;2023-11-19T01:38:02;5;4;
57411;PMS5003;43247;52.828;-8.980;2023-11-19T01:39:02;8;8;
57411;PMS5003;43247;52.828;-8.980;2023-11-19T01:40:03;4;4;
57411;PMS5003;43247;52.828;-8.980;2023-11-19T01:41:03;5;2;
57411;PMS5003;43247;52.828;-8.980;2023-11-19T01:42:03;6;6;
57411;PMS5003;43247;52.828;-8.980;2023-11-19T01:43:03;5;3;
57411;PMS5003;43247;52.828;-8.980;2023-11-19T01:44:04;5;5;
57411;PMS5003;43247;52.828;-8.980;2023-11-19T01:45:06;2;2;
57411;PMS5003;43247;52.828;-8.980;2023-11-19T01:46:04;7;5;
57411;PMS5003;43247;52.828;-8.980;2023-11-19T01:47:04;5;3;
57411;PMS5003;43247;52.828;-8.980;2023-11-19T01:48:04;3;3;
57411;PMS5003;43247;52.828;-8.980;2023-11-19T01:49:04;2;2;
57411;PMS5003;43247;52.828;-8.980;2023-11-19T01:50:06;6;5;
57411;PMS5003;43247;52.828;-8.980;2023-11-19T01:51:05;5;3;
57411;PMS5003;43247;52.828;-8.980;2023-11-19T01:52:05;4;4;
57411;PMS5003;43247;52.828;-8.980;2023-11-19T01:53:06;6;6;
57411;PMS5003;43247;52.828;-8.980;2023-11-19T01:54:06;3;3;
57411;PMS5003;43247;52.828;-8.980;2023-11-19T01:55:07;7;7;
57411;PMS5003;43247;52.828;-8.980;2023-11-19T01:56:07;4;4;
57411;PMS5003;43247;52.828;-8.980;2023-11-19T01:57:07;8;7;
57411;PMS5003;43247;52.828;-8.980;2023-11-19T01:58:08;4;4;
57411;PMS5003;43247;52.828;-8.980;2023-11-19T01:59:08;8;5;
57411;PMS5003;43247;52.828;-8.980;2023-11-19T02:00:08;7;5;
57411;PMS5003;43247;52.828;-8.980;2023-11-19T02:01:08;6;5;
57411;PMS5003;43247;52.828;-8.980;2023-11-19T02:02:08;7;4;
57411;PMS5003;43247;52.828;-8.980;2023-11-19T02:03:09;9;6;
57411;PMS5003;43247;52.828;-8.980;2023-11-19T02:04:09;8;6;
57411;PMS5003;43247;52.828;-8.980;2023-11-19T02:05:10;9;8;
57411;PMS5003;43247;52.828;-8.980;2023-11-19T02:06:11;5;5;
57411;PMS5003;43247;52.828;-8.980;2023-11-19T02:07:11;2;2;
57411;PMS5003;43247;52.828;-8.980;2023-11-19T02:08:11;4;4;
57411;PMS5003;43247;52.828;-8.980;2023-11-19T02:09:11;5;5;
57411;PMS5003;43247;52.828;-8.980;2023-11-19T02:10:11;9;8;
57411;PMS5003;43247;52.828;-8.980;2023-11-19T02:11:12;7;5;
57411;PMS5003;43247;52.828;-8.980;2023-11-19T02:12:13;8;8;
57411;PMS5003;43247;52.828;-8.980;2023-11-19T02:13:13;6;5;
57411;PMS5003;43247;52.828;-8.980;2023-11-19T02:14:13;6;5;
57411;PMS5003;43247;52.828;-8.980;2023-11-19T02:15:14;5;4;
57411;PMS5003;43247;52.828;-8.980;2023-11-19T02:16:14;3;3;
57411;PMS5003;43247;52.828;-8.980;2023-11-19T02:18:18;7;7;
57411;PMS5003;43247;52.828;-8.980;2023-11-19T02:19:15;5;4;
57411;PMS5003;43247;52.828;-8.980;2023-11-19T02:20:16;8;7;
57411;PMS5003;43247;52.828;-8.980;2023-11-19T02:21:16;8;8;
57411;PMS5003;43247;52.828;-8.980;2023-11-19T02:22:16;8;5;
57411;PMS5003;43247;52.828;-8.980;2023-11-19T02:23:17;3;2;
57411;PMS5003;43247;52.828;-8.980;2023-11-19T02:24:17;5;5;
57411;PMS5003;43247;52.828;-8.980;2023-11-19T02:25:19;7;6;
57411;PMS5003;43247;52.828;-8.980;2023-11-19T02:26:19;7;7;
57411;PMS5003;43247;52.828;-8.980;2023-11-19T02:27:19;5;3;
57411;PMS5003;43247;52.828;-8.980;2023-11-19T02:28:18;4;4;
57411;PMS5003;43247;52.828;-8.980;2023-11-19T02:29:19;6;6;
57411;PMS5003;43247;52.828;-8.980;2023-11-19T02:30:19;4;4;
57411;PMS5003;43247;52.828;-8.980;2023-11-19T02:31:20;5;3;
57411;PMS5003;43247;52.828;-8.980;2023-11-19T02:32:20;5;3;
57411;PMS5003;43247;52.828;-8.980;2023-11-19T02:33:20;9;7;
57411;PMS5003;43247;52.828;-8.980;2023-11-19T02:34:20;7;7;
57411;PMS5003;43247;52.828;-8.980;2023-11-19T02:35:20;7;3;
57411;PMS5003;43247;52.828;-8.980;2023-11-19T02:36:20;10;8;
57411;PMS5003;43247;52.828;-8.980;2023-11-19T02:37:21;11;8;
57411;PMS5003;43247;52.828;-8.980;2023-11-19T02:38:21;7;7;
57411;PMS5003;43247;52.828;-8.980;2023-11-19T02:39:22;8;5;
57411;PMS5003;43247;52.828;-8.980;2023-11-19T02:40:22;9;9;
57411;PMS5003;43247;52.828;-8.980;2023-11-19T02:41:23;8;7;
57411;PMS5003;43247;52.828;-8.980;2023-11-19T02:42:23;10;7;
57411;PMS5003;43247;52.828;-8.980;2023-11-19T02:43:23;7;7;
57411;PMS5003;43247;52.828;-8.980;2023-11-19T02:44:24;11;11;
57411;PMS5003;43247;52.828;-8.980;2023-11-19T02:45:25;9;7;
57411;PMS5003;43247;52.828;-8.980;2023-11-19T02:46:24;8;6;
57411;PMS5003;43247;52.828;-8.980;2023-11-19T02:47:25;9;8;
57411;PMS5003;43247;52.828;-8.980;2023-11-19T02:48:26;6;5;
57411;PMS5003;43247;52.828;-8.980;2023-11-19T02:49:25;4;4;
57411;PMS5003;43247;52.828;-8.980;2023-11-19T02:50:26;5;5;
57411;PMS5003;43247;52.828;-8.980;2023-11-19T02:51:26;8;8;
57411;PMS5003;43247;52.828;-8.980;2023-11-19T02:52:26;7;6;
57411;PMS5003;43247;52.828;-8.980;2023-11-19T02:53:27;8;5;
57411;PMS5003;43247;52.828;-8.980;2023-11-19T02:54:27;8;8;
57411;PMS5003;43247;52.828;-8.980;2023-11-19T02:55:28;12;10;
57411;PMS5003;43247;52.828;-8.980;2023-11-19T02:56:28;4;3;
57411;PMS5003;43247;52.828;-8.980;2023-11-19T02:57:30;8;5;
57411;PMS5003;43247;52.828;-8.980;2023-11-19T02:58:28;5;5;
57411;PMS5003;43247;52.828;-8.980;2023-11-19T02:59:28;5;4;
57411;PMS5003;43247;52.828;-8.980;2023-11-19T03:00:29;12;10;
57411;PMS5003;43247;52.828;-8.980;2023-11-19T03:01:29;6;5;
57411;PMS5003;43247;52.828;-8.980;2023-11-19T03:02:29;10;5;
57411;PMS5003;43247;52.828;-8.980;2023-11-19T03:03:30;7;5;
57411;PMS5003;43247;52.828;-8.980;2023-11-19T03:04:30;7;6;
57411;PMS5003;43247;52.828;-8.980;2023-11-19T03:05:30;8;7;
57411;PMS5003;43247;52.828;-8.980;2023-11-19T03:06:31;8;6;
57411;PMS5003;43247;52.828;-8.980;2023-11-19T03:07:31;7;6;
57411;PMS5003;43247;52.828;-8.980;2023-11-19T03:08:32;11;8;
57411;PMS5003;43247;52.828;-8.980;2023-11-19T03:09:32;4;4;
57411;PMS5003;43247;52.828;-8.980;2023-11-19T03:10:32;7;5;
57411;PMS5003;43247;52.828;-8.980;2023-11-19T03:11:33;5;3;
57411;PMS5003;43247;52.828;-8.980;2023-11-19T03:12:33;4;4;
57411;PMS5003;43247;52.828;-8.980;2023-11-19T03:13:33;7;5;
57411;PMS5003;43247;52.828;-8.980;2023-11-19T03:14:33;7;6;
57411;PMS5003;43247;52.828;-8.980;2023-11-19T03:15:33;4;4;
57411;PMS5003;43247;52.828;-8.980;2023-11-19T03:16:34;8;5;
57411;PMS5003;43247;52.828;-8.980;2023-11-19T03:17:34;7;4;
57411;PMS5003;43247;52.828;-8.980;2023-11-19T03:18:34;7;7;
57411;PMS5003;43247;52.828;-8.980;2023-11-19T03:19:35;9;7;
57411;PMS5003;43247;52.828;-8.980;2023-11-19T03:20:35;2;1;
57411;PMS5003;43247;52.828;-8.980;2023-11-19T03:21:35;4;3;
57411;PMS5003;43247;52.828;-8.980;2023-11-19T03:22:36;4;4;
57411;PMS5003;43247;52.828;-8.980;2023-11-19T03:23:36;4;4;
57411;PMS5003;43247;52.828;-8.980;2023-11-19T03:24:36;3;3;
57411;PMS5003;43247;52.828;-8.980;2023-11-19T03:25:36;4;2;
57411;PMS5003;43247;52.828;-8.980;2023-11-19T03:26:37;4;4;
57411;PMS5003;43247;52.828;-8.980;2023-11-19T03:27:38;6;4;
57411;PMS5003;43247;52.828;-8.980;2023-11-19T03:28:38;5;5;
57411;PMS5003;43247;52.828;-8.980;2023-11-19T03:29:38;3;2;
57411;PMS5003;43247;52.828;-8.980;2023-11-19T03:30:38;4;4;
57411;PMS5003;43247;52.828;-8.980;2023-11-19T03:31:41;4;4;
57411;PMS5003;43247;52.828;-8.980;2023-11-19T03:32:38;4;4;
57411;PMS5003;43247;52.828;-8.980;2023-11-19T03:33:38;2;2;
57411;PMS5003;43247;52.828;-8.980;2023-11-19T03:34:39;6;6;
57411;PMS5003;43247;52.828;-8.980;2023-11-19T03:35:39;4;3;
57411;PMS5003;43247;52.828;-8.980;2023-11-19T03:36:39;2;2;
57411;PMS5003;43247;52.828;-8.980;2023-11-19T03:37:40;3;3;
57411;PMS5003;43247;52.828;-8.980;2023-11-19T03:38:40;3;2;
57411;PMS5003;43247;52.828;-8.980;2023-11-19T03:39:40;1;1;
57411;PMS5003;43247;52.828;-8.980;2023-11-19T03:40:40;3;3;
57411;PMS5003;43247;52.828;-8.980;2023-11-19T03:41:40;3;1;
57411;PMS5003;43247;52.828;-8.980;2023-11-19T03:42:40;5;3;
57411;PMS5003;43247;52.828;-8.980;2023-11-19T03:43:41;1;1;
57411;PMS5003;43247;52.828;-8.980;2023-11-19T03:44:41;5;4;
57411;PMS5003;43247;52.828;-8.980;2023-11-19T03:45:41;3;3;
57411;PMS5003;43247;52.828;-8.980;2023-11-19T03:46:41;3;3;
57411;PMS5003;43247;52.828;-8.980;2023-11-19T03:47:41;1;1;
57411;PMS5003;43247;52.828;-8.980;2023-11-19T03:48:41;1;1;
57411;PMS5003;43247;52.828;-8.980;2023-11-19T03:49:42;3;2;
57411;PMS5003;43247;52.828;-8.980;2023-11-19T03:50:42;1;0;
57411;PMS5003;43247;52.828;-8.980;2023-11-19T03:51:42;3;3;
57411;PMS5003;43247;52.828;-8.980;2023-11-19T03:52:42;2;2;
57411;PMS5003;43247;52.828;-8.980;2023-11-19T03:53:42;2;2;
57411;PMS5003;43247;52.828;-8.980;2023-11-19T03:54:42;1;1;
57411;PMS5003;43247;52.828;-8.980;2023-11-19T03:55:42;1;1;
57411;PMS5003;43247;52.828;-8.980;2023-11-19T03:56:43;3;2;
57411;PMS5003;43247;52.828;-8.980;2023-11-19T03:57:43;2;2;
57411;PMS5003;43247;52.828;-8.980;2023-11-19T03:58:43;5;2;
57411;PMS5003;43247;52.828;-8.980;2023-11-19T03:59:44;5;1;
57411;PMS5003;43247;52.828;-8.980;2023-11-19T04:00:44;3;2;
57411;PMS5003;43247;52.828;-8.980;2023-11-19T04:01:44;2;1;
57411;PMS5003;43247;52.828;-8.980;2023-11-19T04:02:44;0;0;
57411;PMS5003;43247;52.828;-8.980;2023-11-19T04:03:44;4;2;
57411;PMS5003;43247;52.828;-8.980;2023-11-19T04:04:44;1;1;
57411;PMS5003;43247;52.828;-8.980;2023-11-19T04:05:45;2;2;
57411;PMS5003;43247;52.828;-8.980;2023-11-19T04:06:45;5;5;
57411;PMS5003;43247;52.828;-8.980;2023-11-19T04:07:45;0;0;
57411;PMS5003;43247;52.828;-8.980;2023-11-19T04:08:46;1;1;
57411;PMS5003;43247;52.828;-8.980;2023-11-19T04:09:46;1;1;
57411;PMS5003;43247;52.828;-8.980;2023-11-19T04:10:46;2;2;
57411;PMS5003;43247;52.828;-8.980;2023-11-19T04:11:46;1;1;
57411;PMS5003;43247;52.828;-8.980;2023-11-19T04:12:46;3;2;
57411;PMS5003;43247;52.828;-8.980;2023-11-19T04:13:46;2;0;
57411;PMS5003;43247;52.828;-8.980;2023-11-19T04:14:47;1;1;
57411;PMS5003;43247;52.828;-8.980;2023-11-19T04:15:47;2;0;
57411;PMS5003;43247;52.828;-8.980;2023-11-19T04:16:47;0;0;
57411;PMS5003;43247;52.828;-8.980;2023-11-19T04:17:47;1;1;
57411;PMS5003;43247;52.828;-8.980;2023-11-19T04:18:47;0;0;
57411;PMS5003;43247;52.828;-8.980;2023-11-19T04:19:47;1;1;
57411;PMS5003;43247;52.828;-8.980;2023-11-19T04:20:48;0;0;
57411;PMS5003;43247;52.828;-8.980;2023-11-19T04:21:48;1;0;
57411;PMS5003;43247;52.828;-8.980;2023-11-19T04:22:49;0;0;
57411;PMS5003;43247;52.828;-8.980;2023-11-19T04:23:48;1;1;
57411;PMS5003;43247;52.828;-8.980;2023-11-19T04:24:48;0;0;
57411;PMS5003;43247;52.828;-8.980;2023-11-19T04:25:48;0;0;
57411;PMS5003;43247;52.828;-8.980;2023-11-19T04:26:49;2;2;
57411;PMS5003;43247;52.828;-8.980;2023-11-19T04:27:49;0;0;
57411;PMS5003;43247;52.828;-8.980;2023-11-19T04:28:49;0;0;
57411;PMS5003;43247;52.828;-8.980;2023-11-19T04:29:49;1;0;
57411;PMS5003;43247;52.828;-8.980;2023-11-19T04:30:49;1;1;
57411;PMS5003;43247;52.828;-8.980;2023-11-19T04:31:49;0;0;
57411;PMS5003;43247;52.828;-8.980;2023-11-19T04:32:49;0;0;
57411;PMS5003;43247;52.828;-8.980;2023-11-19T04:33:50;2;1;
57411;PMS5003;43247;52.828;-8.980;2023-11-19T04:34:50;0;0;
57411;PMS5003;43247;52.828;-8.980;2023-11-19T04:35:50;1;1;
57411;PMS5003;43247;52.828;-8.980;2023-11-19T04:36:50;0;0;
57411;PMS5003;43247;52.828;-8.980;2023-11-19T04:37:50;1;0;
57411;PMS5003;43247;52.828;-8.980;2023-11-19T04:38:50;0;0;
57411;PMS5003;43247;52.828;-8.980;2023-11-19T04:39:51;0;0;
57411;PMS5003;43247;52.828;-8.980;2023-11-19T04:40:51;1;1;
57411;PMS5003;43247;52.828;-8.980;2023-11-19T04:41:51;1;0;
57411;PMS5003;43247;52.828;-8.980;2023-11-19T04:42:51;2;2;
57411;PMS5003;43247;52.828;-8.980;2023-11-19T04:43:51;0;0;
57411;PMS5003;43247;52.828;-8.980;2023-11-19T04:44:51;0;0;
57411;PMS5003;43247;52.828;-8.980;2023-11-19T04:45:51;0;0;
57411;PMS5003;43247;52.828;-8.980;2023-11-19T04:46:52;0;0;
57411;PMS5003;43247;52.828;-8.980;2023-11-19T04:47:52;0;0;
57411;PMS5003;43247;52.828;-8.980;2023-11-19T04:48:52;0;0;
57411;PMS5003;43247;52.828;-8.980;2023-11-19T04:49:52;2;0;
57411;PMS5003;43247;52.828;-8.980;2023-11-19T04:50:52;0;0;
57411;PMS5003;43247;52.828;-8.980;2023-11-19T04:51:52;0;0;
57411;PMS5003;43247;52.828;-8.980;2023-11-19T04:52:53;2;1;
57411;PMS5003;43247;52.828;-8.980;2023-11-19T04:53:53;0;0;
57411;PMS5003;43247;52.828;-8.980;2023-11-19T04:54:53;0;0;
57411;PMS5003;43247;52.828;-8.980;2023-11-19T04:55:53;2;0;
57411;PMS5003;43247;52.828;-8.980;2023-11-19T04:56:53;1;0;
57411;PMS5003;43247;52.828;-8.980;2023-11-19T04:57:53;0;0;
57411;PMS5003;43247;52.828;-8.980;2023-11-19T04:58:54;1;1;
57411;PMS5003;43247;52.828;-8.980;2023-11-19T04:59:54;0;0;
57411;PMS5003;43247;52.828;-8.980;2023-11-19T05:00:54;0;0;
57411;PMS5003;43247;52.828;-8.980;2023-11-19T05:01:54;0;0;
57411;PMS5003;43247;52.828;-8.980;2023-11-19T05:02:54;1;0;
57411;PMS5003;43247;52.828;-8.980;2023-11-19T05:03:55;0;0;
57411;PMS5003;43247;52.828;-8.980;2023-11-19T05:04:54;1;1;
57411;PMS5003;43247;52.828;-8.980;2023-11-19T05:05:55;0;0;
57411;PMS5003;43247;52.828;-8.980;2023-11-19T05:06:55;0;0;
57411;PMS5003;43247;52.828;-8.980;2023-11-19T05:07:55;0;0;
57411;PMS5003;43247;52.828;-8.980;2023-11-19T05:08:55;0;0;
57411;PMS5003;43247;52.828;-8.980;2023-11-19T05:09:55;0;0;
57411;PMS5003;43247;52.828;-8.980;2023-11-19T05:10:55;0;0;
57411;PMS5003;43247;52.828;-8.980;2023-11-19T05:11:56;0;0;
57411;PMS5003;43247;52.828;-8.980;2023-11-19T05:12:56;0;0;
57411;PMS5003;43247;52.828;-8.980;2023-11-19T05:13:56;0;0;
57411;PMS5003;43247;52.828;-8.980;2023-11-19T05:14:56;1;0;
57411;PMS5003;43247;52.828;-8.980;2023-11-19T05:15:56;0;0;
57411;PMS5003;43247;52.828;-8.980;2023-11-19T05:16:56;1;0;
57411;PMS5003;43247;52.828;-8.980;2023-11-19T05:17:57;0;0;
57411;PMS5003;43247;52.828;-8.980;2023-11-19T05:18:57;0;0;
57411;PMS5003;43247;52.828;-8.980;2023-11-19T05:19:57;0;0;
57411;PMS5003;43247;52.828;-8.980;2023-11-19T05:20:57;0;0;
57411;PMS5003;43247;52.828;-8.980;2023-11-19T05:21:57;1;1;
57411;PMS5003;43247;52.828;-8.980;2023-11-19T05:22:58;0;0;
57411;PMS5003;43247;52.828;-8.980;2023-11-19T05:23:57;0;0;
57411;PMS5003;43247;52.828;-8.980;2023-11-19T05:24:58;0;0;
57411;PMS5003;43247;52.828;-8.980;2023-11-19T05:25:58;0;0;
57411;PMS5003;43247;52.828;-8.980;2023-11-19T05:26:58;0;0;
57411;PMS5003;43247;52.828;-8.980;2023-11-19T05:27:58;0;0;
57411;PMS5003;43247;52.828;-8.980;2023-11-19T05:28:58;0;0;
57411;PMS5003;43247;52.828;-8.980;2023-11-19T05:29:58;0;0;
57411;PMS5003;43247;52.828;-8.980;2023-11-19T05:30:59;0;0;
57411;PMS5003;43247;52.828;-8.980;2023-11-19T05:31:59;1;1;
57411;PMS5003;43247;52.828;-8.980;2023-11-19T05:32:59;0;0;
57411;PMS5003;43247;52.828;-8.980;2023-11-19T05:33:59;1;0;
57411;PMS5003;43247;52.828;-8.980;2023-11-19T05:34:59;2;1;
57411;PMS5003;43247;52.828;-8.980;2023-11-19T05:35:59;1;0;
57411;PMS5003;43247;52.828;-8.980;2023-11-19T05:36:59;0;0;
57411;PMS5003;43247;52.828;-8.980;2023-11-19T05:38:00;1;0;
57411;PMS5003;43247;52.828;-8.980;2023-11-19T05:39:00;1;1;
57411;PMS5003;43247;52.828;-8.980;2023-11-19T05:40:00;1;1;
57411;PMS5003;43247;52.828;-8.980;2023-11-19T05:41:00;1;0;
57411;PMS5003;43247;52.828;-8.980;2023-11-19T05:42:00;0;0;
57411;PMS5003;43247;52.828;-8.980;2023-11-19T05:43:01;0;0;
57411;PMS5003;43247;52.828;-8.980;2023-11-19T05:44:01;0;0;
57411;PMS5003;43247;52.828;-8.980;2023-11-19T05:45:01;0;0;
57411;PMS5003;43247;52.828;-8.980;2023-11-19T05:46:01;0;0;
57411;PMS5003;43247;52.828;-8.980;2023-11-19T05:47:01;1;1;
57411;PMS5003;43247;52.828;-8.980;2023-11-19T05:48:01;0;0;
57411;PMS5003;43247;52.828;-8.980;2023-11-19T05:49:01;0;0;
57411;PMS5003;43247;52.828;-8.980;2023-11-19T05:50:03;0;0;
57411;PMS5003;43247;52.828;-8.980;2023-11-19T05:51:04;0;0;
57411;PMS5003;43247;52.828;-8.980;2023-11-19T05:52:04;0;0;
57411;PMS5003;43247;52.828;-8.980;2023-11-19T05:53:04;0;0;
57411;PMS5003;43247;52.828;-8.980;2023-11-19T05:54:04;0;0;
57411;PMS5003;43247;52.828;-8.980;2023-11-19T05:55:04;0;0;
57411;PMS5003;43247;52.828;-8.980;2023-11-19T05:56:04;0;0;
57411;PMS5003;43247;52.828;-8.980;2023-11-19T05:57:04;0;0;
57411;PMS5003;43247;52.828;-8.980;2023-11-19T05:58:04;0;0;
57411;PMS5003;43247;52.828;-8.980;2023-11-19T05:59:05;0;0;
57411;PMS5003;43247;52.828;-8.980;2023-11-19T06:00:05;0;0;
57411;PMS5003;43247;52.828;-8.980;2023-11-19T06:01:05;1;1;
57411;PMS5003;43247;52.828;-8.980;2023-11-19T06:02:05;0;0;
57411;PMS5003;43247;52.828;-8.980;2023-11-19T06:03:05;2;2;
57411;PMS5003;43247;52.828;-8.980;2023-11-19T06:04:05;3;2;
57411;PMS5003;43247;52.828;-8.980;2023-11-19T06:05:06;1;1;
57411;PMS5003;43247;52.828;-8.980;2023-11-19T06:06:06;2;2;
57411;PMS5003;43247;52.828;-8.980;2023-11-19T06:07:06;1;1;
57411;PMS5003;43247;52.828;-8.980;2023-11-19T06:08:07;1;0;
57411;PMS5003;43247;52.828;-8.980;2023-11-19T06:09:07;3;2;
57411;PMS5003;43247;52.828;-8.980;2023-11-19T06:10:07;1;1;
57411;PMS5003;43247;52.828;-8.980;2023-11-19T06:11:09;1;1;
57411;PMS5003;43247;52.828;-8.980;2023-11-19T06:12:08;2;1;
57411;PMS5003;43247;52.828;-8.980;2023-11-19T06:13:08;3;1;
57411;PMS5003;43247;52.828;-8.980;2023-11-19T06:14:08;2;2;
57411;PMS5003;43247;52.828;-8.980;2023-11-19T06:15:08;2;2;
57411;PMS5003;43247;52.828;-8.980;2023-11-19T06:16:08;0;0;
57411;PMS5003;43247;52.828;-8.980;2023-11-19T06:17:09;2;2;
57411;PMS5003;43247;52.828;-8.980;2023-11-19T06:18:09;5;3;
57411;PMS5003;43247;52.828;-8.980;2023-11-19T06:19:09;3;3;
57411;PMS5003;43247;52.828;-8.980;2023-11-19T06:20:09;4;2;
57411;PMS5003;43247;52.828;-8.980;2023-11-19T06:21:09;3;3;
57411;PMS5003;43247;52.828;-8.980;2023-11-19T06:22:09;2;2;
57411;PMS5003;43247;52.828;-8.980;2023-11-19T06:23:10;2;2;
57411;PMS5003;43247;52.828;-8.980;2023-11-19T06:24:10;1;1;
57411;PMS5003;43247;52.828;-8.980;2023-11-19T06:25:10;0;0;
57411;PMS5003;43247;52.828;-8.980;2023-11-19T06:26:10;2;2;
57411;PMS5003;43247;52.828;-8.980;2023-11-19T06:27:10;6;4;
57411;PMS5003;43247;52.828;-8.980;2023-11-19T06:28:10;1;1;
57411;PMS5003;43247;52.828;-8.980;2023-11-19T06:29:11;2;1;
57411;PMS5003;43247;52.828;-8.980;2023-11-19T06:30:11;1;1;
57411;PMS5003;43247;52.828;-8.980;2023-11-19T06:31:11;2;1;
57411;PMS5003;43247;52.828;-8.980;2023-11-19T06:32:11;3;2;
57411;PMS5003;43247;52.828;-8.980;2023-11-19T06:33:12;1;1;
57411;PMS5003;43247;52.828;-8.980;2023-11-19T06:34:11;4;3;
57411;PMS5003;43247;52.828;-8.980;2023-11-19T06:35:11;1;1;
57411;PMS5003;43247;52.828;-8.980;2023-11-19T06:36:14;3;1;
57411;PMS5003;43247;52.828;-8.980;2023-11-19T06:37:12;2;1;
57411;PMS5003;43247;52.828;-8.980;2023-11-19T06:38:12;3;2;
57411;PMS5003;43247;52.828;-8.980;2023-11-19T06:39:12;5;4;
57411;PMS5003;43247;52.828;-8.980;2023-11-19T06:40:12;3;3;
57411;PMS5003;43247;52.828;-8.980;2023-11-19T06:41:12;4;4;
57411;PMS5003;43247;52.828;-8.980;2023-11-19T06:42:13;1;1;
57411;PMS5003;43247;52.828;-8.980;2023-11-19T06:43:13;5;3;
57411;PMS5003;43247;52.828;-8.980;2023-11-19T06:44:13;5;3;
57411;PMS5003;43247;52.828;-8.980;2023-11-19T06:45:13;1;1;
57411;PMS5003;43247;52.828;-8.980;2023-11-19T06:46:15;0;0;
57411;PMS5003;43247;52.828;-8.980;2023-11-19T06:47:14;2;2;